• Join FlightAware (Why Join?)
  • Login
  • US Flag 
06:35AM EST


 

Airport Tracker/Info


-or-


 

Live Flight TrackerFlight Track Log ✈ ASQ6041 ✈ 31-Aug-2014 ✈ KDEN - KLNK

Flight Track Log - Related Links

Times and Time Zones

All times are in EDT time to prevent confusion due to time zone crossing. See the ASQ6041 flight status page for this flight to view local times or setup timezone preferences in your user account.

Time Position Orientation Groundspeed Altitude Reporting Facility
EDT Latitude Longitude Course Direction KTS MPH feet Rate Location/Type
12:21PM 39.8667 -103.9755 90° East  Level FlightAware Approximate
12:21PM 39.9535 -104.4111 88° East 312 359 9,900  Level FlightAware ADS-B (KEIK)
12:22PM 39.8667 -103.8023 90° East  Level FlightAware Approximate
12:23PM 39.8901 -103.6330 85° East  Level FlightAware Approximate
12:23PM 39.9167 -104.2500 88° East 363 418 11,100  Level Denver TRACON
12:24PM 39.8500 -104.4936 90° East  Level FlightAware Approximate
12:24PM 39.9003 -104.1192 99° East 377 434 14,000  Level Denver Center
12:25PM 39.8808 -103.9850 101° East 355 409 16,800 2,100 Climbing Denver Center
12:26PM 39.8742 -103.8481 94° East 380 437 18,400 1,500 Climbing Denver Center
12:27PM 39.8858 -103.7086 84° East 389 448 19,900 1,680 Climbing Denver Center
12:28PM 39.9025 -103.5597 82° East 408 470 21,900 1,500 Climbing Denver Center
12:29PM 39.9206 -103.4089 81° East 416 479 23,000 1,500 Climbing Denver Center
12:30PM 39.9419 -103.2153 82° East 444 511 25,100 1,980 Climbing Denver Center
12:31PM 39.9611 -103.0581 81° East 444 511 27,200 1,860 Climbing Denver Center
12:32PM 39.9878 -102.9031 77° East 442 509 29,000 1,620 Climbing Denver Center
12:33PM 40.0139 -102.7472 78° East 442 509 30,600 960 Climbing Denver Center
12:34PM 40.0444 -102.5608 78° East 470 541 31,000 180 Climbing Denver Center
12:35PM 40.0733 -102.3892 78° East 502 578 31,000  Level Denver Center
12:36PM 40.1042 -102.1964 78° East 485 558 31,000  Level Denver Center
12:37PM 40.1303 -102.0369 78° East 472 543 31,000  Level Denver Center
12:38PM 40.1622 -101.8344 78° East 509 586 31,000  Level Denver Center
12:39PM 40.1908 -101.6597 78° East 514 592 31,000  Level Denver Center
12:40PM 40.2214 -101.4558 79° East 514 592 31,000  Level Denver Center
12:41PM 40.2483 -101.2831 78° East 512 589 31,000  Level Denver Center
12:42PM 40.2797 -101.0803 78° East 512 589 31,000  Level Denver Center
12:43PM 40.3056 -100.9108 79° East 503 579 31,000  Level Denver Center
12:44PM 40.3350 -100.7125 79° East 502 578 31,000  Level Denver Center
12:45PM 40.3597 -100.5425 79° East 502 578 31,000  Level Denver Center
12:46PM 40.3889 -100.3458 79° East 497 572 31,000  Level Denver Center
12:47PM 40.4133 -100.1783 79° East 496 571 31,000  Level Denver Center
12:49PM 40.4408 -99.9814 80° East 495 570 31,000  Level Denver Center
12:50PM 40.4622 -99.8292 79° East 495 570 31,000  Level Denver Center
12:51PM 40.4922 -99.6178 79° East 495 570 31,000  Level Denver Center
12:52PM 40.5164 -99.4394 80° East 495 570 31,000  Level Denver Center
12:53PM 40.5406 -99.2617 80° East 495 570 31,000  Level Denver Center
12:54PM 40.5647 -99.0836 80° East 496 571 31,000  Level Denver Center
12:55PM 40.5875 -98.9064 80° East 496 571 31,000 -540 Level Denver Center
12:56PM 40.6161 -98.6925 80° East 496 571 29,900 -1,800 Descending Denver Center
12:57PM 40.6383 -98.5203 80° East 487 560 27,400 -2,460 Descending Denver Center
12:58PM 40.6631 -98.3206 81° East 469 540 24,400 -2,520 Descending Minneapolis Center
12:59PM 40.6853 -98.1492 80° East 470 541 21,800 -2,520 Descending Minneapolis Center
01:00PM 40.7064 -97.9844 80° East 465 535 19,300 -2,820 Descending Minneapolis Center
01:01PM 40.7289 -97.7972 81° East 440 506 16,000 -2,760 Descending Minneapolis Center
01:02PM 40.7472 -97.6469 81° East 423 487 13,600 -2,460 Descending Minneapolis Center
01:03PM 40.7397 -97.5283 95° East 406 467 11,600 -2,340 Descending Minneapolis Center
01:03PM 40.7653 -97.5003 40° Northeast 411 473 11,200 -900 Descending Minneapolis Center
01:04PM 40.7869 -97.3628 78° East 391 450 10,500 -960 Descending Minneapolis Center
01:05PM 40.7964 -97.2647 83° East 316 364 9,500 -1,200 Descending Minneapolis Center
01:05PM 40.8181 -97.2608 North 336 387 9,300 -1,560 Descending Minneapolis Center
01:06PM 40.8269 -97.1708 83° East 300 345 8,100 -1,800 Descending Minneapolis Center
01:06PM 40.8542 -97.1347 45° Northeast 311 358 7,500 -1,560 Descending Minneapolis Center
01:07PM 40.8603 -97.0575 84° East 285 328 6,400 -1,560 Descending Minneapolis Center
01:07PM 40.8833 -97.0375 33° Northeast 292 336 5,900 -1,620 Descending Minneapolis Center
01:08PM 40.8906 -96.9639 83° East 275 316 4,800 -1,500 Descending Minneapolis Center
01:08PM 40.9114 -96.9433 37° Northeast 282 325 4,400 -1,320 Descending Minneapolis Center
01:09PM 40.9125 -96.8761 89° East 223 257 3,500 -1,080 Descending Minneapolis Center
01:09PM 40.9258 -96.8642 34° Northeast 249 287 3,300 -900 Descending Minneapolis Center
01:10PM 40.9053 -96.8217 123° Southeast 137 158 2,700 -900 Descending Minneapolis Center
01:10PM 40.9097 -96.8094 64° Northeast 194 223 2,400 -840 Descending Minneapolis Center
01:11PM 40.8803 -96.7886 152° Southeast 131 151 1,900 -780 Descending Minneapolis Center
01:11PM 40.8844 -96.7853 31° Northeast 148 170 1,600 -420 Descending Minneapolis Center
01:13PM 40.8483 -96.7544 147° Southeast 136 157 1,300 -300 Descending Minneapolis Center